sensor_id;sensor_type;location;lat;lon;timestamp;temperature;humidity
77613;DHT22;66777;52.282;5.960;2023-05-16T00:00:23;8.60;81.50
77613;DHT22;66777;52.282;5.960;2023-05-16T00:02:53;8.50;81.00
77613;DHT22;66777;52.282;5.960;2023-05-16T00:05:18;8.60;80.80
77613;DHT22;66777;52.282;5.960;2023-05-16T00:07:45;8.50;80.60
77613;DHT22;66777;52.282;5.960;2023-05-16T00:10:12;8.50;81.20
77613;DHT22;66777;52.282;5.960;2023-05-16T00:12:39;8.50;80.90
77613;DHT22;66777;52.282;5.960;2023-05-16T00:15:09;8.50;80.50
77613;DHT22;66777;52.282;5.960;2023-05-16T00:17:38;8.50;80.70
77613;DHT22;66777;52.282;5.960;2023-05-16T00:20:04;8.50;81.00
77613;DHT22;66777;52.282;5.960;2023-05-16T00:22:32;8.50;80.50
77613;DHT22;66777;52.282;5.960;2023-05-16T00:24:58;8.50;80.90
77613;DHT22;66777;52.282;5.960;2023-05-16T00:27:23;8.50;80.80
77613;DHT22;66777;52.282;5.960;2023-05-16T00:29:49;8.50;80.50
77613;DHT22;66777;52.282;5.960;2023-05-16T00:32:15;8.40;81.00
77613;DHT22;66777;52.282;5.960;2023-05-16T00:34:41;8.40;81.10
77613;DHT22;66777;52.282;5.960;2023-05-16T00:37:07;8.40;81.10
77613;DHT22;66777;52.282;5.960;2023-05-16T00:39:32;8.30;81.10
77613;DHT22;66777;52.282;5.960;2023-05-16T00:41:58;8.30;81.10
77613;DHT22;66777;52.282;5.960;2023-05-16T00:44:24;8.20;81.40
77613;DHT22;66777;52.282;5.960;2023-05-16T00:46:50;8.20;81.50
77613;DHT22;66777;52.282;5.960;2023-05-16T00:49:16;8.20;81.80
77613;DHT22;66777;52.282;5.960;2023-05-16T00:51:42;8.10;81.70
77613;DHT22;66777;52.282;5.960;2023-05-16T00:54:09;8.10;81.70
77613;DHT22;66777;52.282;5.960;2023-05-16T00:56:35;8.10;82.00
77613;DHT22;66777;52.282;5.960;2023-05-16T00:59:01;8.00;81.90
77613;DHT22;66777;52.282;5.960;2023-05-16T01:01:28;8.00;81.90
77613;DHT22;66777;52.282;5.960;2023-05-16T01:03:55;8.00;81.90
77613;DHT22;66777;52.282;5.960;2023-05-16T01:06:21;8.00;82.20
77613;DHT22;66777;52.282;5.960;2023-05-16T01:08:47;8.00;82.20
77613;DHT22;66777;52.282;5.960;2023-05-16T01:14:11;7.80;82.30
77613;DHT22;66777;52.282;5.960;2023-05-16T01:16:39;7.80;82.40
77613;DHT22;66777;52.282;5.960;2023-05-16T01:24:52;7.80;82.60
77613;DHT22;66777;52.282;5.960;2023-05-16T01:27:22;7.80;82.20
77613;DHT22;66777;52.282;5.960;2023-05-16T01:29:48;7.70;82.30
77613;DHT22;66777;52.282;5.960;2023-05-16T01:32:20;7.60;82.00
77613;DHT22;66777;52.282;5.960;2023-05-16T01:34:49;7.60;81.90
77613;DHT22;66777;52.282;5.960;2023-05-16T01:37:20;7.60;82.20
77613;DHT22;66777;52.282;5.960;2023-05-16T01:40:11;7.70;82.10
77613;DHT22;66777;52.282;5.960;2023-05-16T01:42:42;7.60;81.90
77613;DHT22;66777;52.282;5.960;2023-05-16T01:47:40;7.60;81.90
77613;DHT22;66777;52.282;5.960;2023-05-16T01:50:12;7.50;81.90
77613;DHT22;66777;52.282;5.960;2023-05-16T01:52:55;7.50;81.90
77613;DHT22;66777;52.282;5.960;2023-05-16T01:55:47;7.50;82.00
77613;DHT22;66777;52.282;5.960;2023-05-16T01:58:14;7.50;82.00
77613;DHT22;66777;52.282;5.960;2023-05-16T02:00:41;7.50;82.00
77613;DHT22;66777;52.282;5.960;2023-05-16T02:03:08;7.50;82.20
77613;DHT22;66777;52.282;5.960;2023-05-16T02:05:33;7.40;82.30
77613;DHT22;66777;52.282;5.960;2023-05-16T02:07:59;7.40;82.40
77613;DHT22;66777;52.282;5.960;2023-05-16T02:10:25;7.40;82.40
77613;DHT22;66777;52.282;5.960;2023-05-16T02:12:51;7.30;82.40
77613;DHT22;66777;52.282;5.960;2023-05-16T02:15:18;7.20;82.60
77613;DHT22;66777;52.282;5.960;2023-05-16T02:17:44;7.20;82.80
77613;DHT22;66777;52.282;5.960;2023-05-16T02:20:10;7.20;82.80
77613;DHT22;66777;52.282;5.960;2023-05-16T02:22:36;7.10;82.80
77613;DHT22;66777;52.282;5.960;2023-05-16T02:25:04;7.10;82.60
77613;DHT22;66777;52.282;5.960;2023-05-16T02:27:30;7.00;82.80
77613;DHT22;66777;52.282;5.960;2023-05-16T02:29:55;7.00;82.60
77613;DHT22;66777;52.282;5.960;2023-05-16T02:32:21;7.00;82.80
77613;DHT22;66777;52.282;5.960;2023-05-16T02:34:47;7.00;82.60
77613;DHT22;66777;52.282;5.960;2023-05-16T02:37:12;7.00;82.70
77613;DHT22;66777;52.282;5.960;2023-05-16T02:39:38;7.00;82.50
77613;DHT22;66777;52.282;5.960;2023-05-16T02:42:05;7.00;82.70
77613;DHT22;66777;52.282;5.960;2023-05-16T02:44:30;7.00;82.60
77613;DHT22;66777;52.282;5.960;2023-05-16T02:46:56;6.90;82.50
77613;DHT22;66777;52.282;5.960;2023-05-16T02:49:21;6.90;82.50
77613;DHT22;66777;52.282;5.960;2023-05-16T02:51:47;6.90;82.40
77613;DHT22;66777;52.282;5.960;2023-05-16T02:54:13;6.90;82.90
77613;DHT22;66777;52.282;5.960;2023-05-16T02:56:38;6.90;82.80
77613;DHT22;66777;52.282;5.960;2023-05-16T02:59:04;6.90;82.90
77613;DHT22;66777;52.282;5.960;2023-05-16T03:01:30;6.90;82.70
77613;DHT22;66777;52.282;5.960;2023-05-16T03:03:55;6.90;82.60
77613;DHT22;66777;52.282;5.960;2023-05-16T03:06:21;6.80;82.80
77613;DHT22;66777;52.282;5.960;2023-05-16T03:08:47;6.80;82.80
77613;DHT22;66777;52.282;5.960;2023-05-16T03:11:13;6.80;82.90
77613;DHT22;66777;52.282;5.960;2023-05-16T03:13:40;6.80;83.00
77613;DHT22;66777;52.282;5.960;2023-05-16T03:16:06;6.80;82.90
77613;DHT22;66777;52.282;5.960;2023-05-16T03:18:32;6.90;83.10
77613;DHT22;66777;52.282;5.960;2023-05-16T03:20:58;6.90;82.60
77613;DHT22;66777;52.282;5.960;2023-05-16T03:23:24;6.80;82.80
77613;DHT22;66777;52.282;5.960;2023-05-16T03:25:50;6.80;82.90
77613;DHT22;66777;52.282;5.960;2023-05-16T03:28:16;6.70;83.00
77613;DHT22;66777;52.282;5.960;2023-05-16T03:30:45;6.70;83.20
77613;DHT22;66777;52.282;5.960;2023-05-16T03:33:10;6.60;83.30
77613;DHT22;66777;52.282;5.960;2023-05-16T03:35:37;6.60;83.30
77613;DHT22;66777;52.282;5.960;2023-05-16T03:38:03;6.60;83.20
77613;DHT22;66777;52.282;5.960;2023-05-16T03:40:29;6.60;83.20
77613;DHT22;66777;52.282;5.960;2023-05-16T03:42:55;6.60;83.20
77613;DHT22;66777;52.282;5.960;2023-05-16T03:45:21;6.60;83.10
77613;DHT22;66777;52.282;5.960;2023-05-16T03:47:48;6.50;83.10
77613;DHT22;66777;52.282;5.960;2023-05-16T03:50:14;6.50;83.30
77613;DHT22;66777;52.282;5.960;2023-05-16T03:52:41;6.50;83.20
77613;DHT22;66777;52.282;5.960;2023-05-16T03:55:07;6.50;83.10
77613;DHT22;66777;52.282;5.960;2023-05-16T03:57:35;6.50;83.10
77613;DHT22;66777;52.282;5.960;2023-05-16T04:00:00;6.50;82.90
77613;DHT22;66777;52.282;5.960;2023-05-16T04:02:26;6.70;82.90
77613;DHT22;66777;52.282;5.960;2023-05-16T04:04:52;6.80;82.70
77613;DHT22;66777;52.282;5.960;2023-05-16T04:07:17;6.80;82.50
77613;DHT22;66777;52.282;5.960;2023-05-16T04:09:43;6.70;82.60
77613;DHT22;66777;52.282;5.960;2023-05-16T04:12:09;6.70;82.90
77613;DHT22;66777;52.282;5.960;2023-05-16T04:14:35;6.70;82.70
77613;DHT22;66777;52.282;5.960;2023-05-16T04:17:01;6.80;82.70
77613;DHT22;66777;52.282;5.960;2023-05-16T04:19:26;6.90;82.70
77613;DHT22;66777;52.282;5.960;2023-05-16T04:21:52;7.10;82.40
77613;DHT22;66777;52.282;5.960;2023-05-16T04:24:18;7.30;82.00
77613;DHT22;66777;52.282;5.960;2023-05-16T04:26:44;7.50;81.60
77613;DHT22;66777;52.282;5.960;2023-05-16T04:29:09;7.70;81.20
77613;DHT22;66777;52.282;5.960;2023-05-16T04:31:36;7.90;80.80
77613;DHT22;66777;52.282;5.960;2023-05-16T04:34:02;8.00;80.40
77613;DHT22;66777;52.282;5.960;2023-05-16T04:36:28;7.80;80.40
77613;DHT22;66777;52.282;5.960;2023-05-16T04:38:55;7.60;80.70
77613;DHT22;66777;52.282;5.960;2023-05-16T04:41:22;7.50;81.30
77613;DHT22;66777;52.282;5.960;2023-05-16T04:43:48;7.40;81.60
77613;DHT22;66777;52.282;5.960;2023-05-16T04:46:14;7.40;81.80
77613;DHT22;66777;52.282;5.960;2023-05-16T04:48:40;7.40;82.00
77613;DHT22;66777;52.282;5.960;2023-05-16T04:51:06;7.40;82.00
77613;DHT22;66777;52.282;5.960;2023-05-16T04:53:32;7.40;82.00
77613;DHT22;66777;52.282;5.960;2023-05-16T04:55:58;7.50;82.10
77613;DHT22;66777;52.282;5.960;2023-05-16T04:58:24;7.50;82.00
77613;DHT22;66777;52.282;5.960;2023-05-16T05:00:53;7.50;81.90
77613;DHT22;66777;52.282;5.960;2023-05-16T05:03:20;7.60;82.00
77613;DHT22;66777;52.282;5.960;2023-05-16T05:05:45;7.80;81.90
77613;DHT22;66777;52.282;5.960;2023-05-16T05:08:12;8.10;81.20
77613;DHT22;66777;52.282;5.960;2023-05-16T05:10:37;8.50;80.50
77613;DHT22;66777;52.282;5.960;2023-05-16T05:13:04;8.80;79.50
77613;DHT22;66777;52.282;5.960;2023-05-16T05:15:29;9.10;78.50
77613;DHT22;66777;52.282;5.960;2023-05-16T05:17:55;9.40;77.80
77613;DHT22;66777;52.282;5.960;2023-05-16T05:20:21;9.40;77.00
77613;DHT22;66777;52.282;5.960;2023-05-16T05:22:47;9.40;77.40
77613;DHT22;66777;52.282;5.960;2023-05-16T05:25:13;9.30;77.40
77613;DHT22;66777;52.282;5.960;2023-05-16T05:27:39;9.50;77.50
77613;DHT22;66777;52.282;5.960;2023-05-16T05:30:05;9.70;76.80
77613;DHT22;66777;52.282;5.960;2023-05-16T05:32:31;10.00;76.50
77613;DHT22;66777;52.282;5.960;2023-05-16T05:34:56;10.30;75.90
77613;DHT22;66777;52.282;5.960;2023-05-16T05:37:22;10.50;74.60
77613;DHT22;66777;52.282;5.960;2023-05-16T05:39:48;10.80;74.70
77613;DHT22;66777;52.282;5.960;2023-05-16T05:42:14;10.90;73.20
77613;DHT22;66777;52.282;5.960;2023-05-16T05:44:40;11.10;72.10
77613;DHT22;66777;52.282;5.960;2023-05-16T05:47:06;11.10;72.00
77613;DHT22;66777;52.282;5.960;2023-05-16T05:49:33;11.40;71.10
77613;DHT22;66777;52.282;5.960;2023-05-16T05:51:59;11.50;71.90
77613;DHT22;66777;52.282;5.960;2023-05-16T05:54:25;11.70;69.50
77613;DHT22;66777;52.282;5.960;2023-05-16T05:56:50;11.90;69.90
77613;DHT22;66777;52.282;5.960;2023-05-16T05:59:16;11.90;68.60
77613;DHT22;66777;52.282;5.960;2023-05-16T06:01:42;11.90;69.50
77613;DHT22;66777;52.282;5.960;2023-05-16T06:04:09;11.90;69.10
77613;DHT22;66777;52.282;5.960;2023-05-16T06:06:36;11.90;70.30
77613;DHT22;66777;52.282;5.960;2023-05-16T06:09:02;11.70;69.20
77613;DHT22;66777;52.282;5.960;2023-05-16T06:11:28;11.70;69.20
77613;DHT22;66777;52.282;5.960;2023-05-16T06:13:54;11.70;69.50
77613;DHT22;66777;52.282;5.960;2023-05-16T06:16:23;11.70;70.70
77613;DHT22;66777;52.282;5.960;2023-05-16T06:18:49;11.90;71.20
77613;DHT22;66777;52.282;5.960;2023-05-16T06:21:15;11.90;68.30
77613;DHT22;66777;52.282;5.960;2023-05-16T06:23:41;11.70;70.50
77613;DHT22;66777;52.282;5.960;2023-05-16T06:26:06;11.50;69.90
77613;DHT22;66777;52.282;5.960;2023-05-16T06:28:32;11.40;70.40
77613;DHT22;66777;52.282;5.960;2023-05-16T06:30:58;11.50;70.90
77613;DHT22;66777;52.282;5.960;2023-05-16T06:33:23;11.90;70.60
77613;DHT22;66777;52.282;5.960;2023-05-16T06:35:49;11.90;69.70
77613;DHT22;66777;52.282;5.960;2023-05-16T06:38:15;11.80;69.60
77613;DHT22;66777;52.282;5.960;2023-05-16T06:40:40;11.90;69.90
77613;DHT22;66777;52.282;5.960;2023-05-16T06:43:06;11.70;68.60
77613;DHT22;66777;52.282;5.960;2023-05-16T06:45:31;12.00;70.10
77613;DHT22;66777;52.282;5.960;2023-05-16T06:47:57;12.20;69.60
77613;DHT22;66777;52.282;5.960;2023-05-16T06:50:23;12.10;67.50
77613;DHT22;66777;52.282;5.960;2023-05-16T06:52:48;12.00;69.80
77613;DHT22;66777;52.282;5.960;2023-05-16T06:55:14;12.00;69.20
77613;DHT22;66777;52.282;5.960;2023-05-16T06:57:40;11.90;70.00
77613;DHT22;66777;52.282;5.960;2023-05-16T07:00:06;11.90;70.80
77613;DHT22;66777;52.282;5.960;2023-05-16T07:02:32;11.70;72.30
77613;DHT22;66777;52.282;5.960;2023-05-16T07:04:58;11.50;73.20
77613;DHT22;66777;52.282;5.960;2023-05-16T07:07:23;11.30;74.60
77613;DHT22;66777;52.282;5.960;2023-05-16T07:09:49;11.30;74.90
77613;DHT22;66777;52.282;5.960;2023-05-16T07:12:14;11.10;74.60
77613;DHT22;66777;52.282;5.960;2023-05-16T07:14:40;11.00;74.90
77613;DHT22;66777;52.282;5.960;2023-05-16T07:17:07;10.90;74.80
77613;DHT22;66777;52.282;5.960;2023-05-16T07:19:33;10.70;75.00
77613;DHT22;66777;52.282;5.960;2023-05-16T07:21:59;10.40;74.70
77613;DHT22;66777;52.282;5.960;2023-05-16T07:24:24;10.30;76.10
77613;DHT22;66777;52.282;5.960;2023-05-16T07:26:50;10.20;75.30
77613;DHT22;66777;52.282;5.960;2023-05-16T07:29:16;10.10;74.90
77613;DHT22;66777;52.282;5.960;2023-05-16T07:31:41;10.10;75.00
77613;DHT22;66777;52.282;5.960;2023-05-16T07:34:08;10.30;73.50
77613;DHT22;66777;52.282;5.960;2023-05-16T07:36:35;10.70;72.20
77613;DHT22;66777;52.282;5.960;2023-05-16T07:39:01;11.30;68.90
77613;DHT22;66777;52.282;5.960;2023-05-16T07:41:27;11.70;68.70
77613;DHT22;66777;52.282;5.960;2023-05-16T07:43:53;12.10;67.20
77613;DHT22;66777;52.282;5.960;2023-05-16T07:46:18;12.50;65.00
77613;DHT22;66777;52.282;5.960;2023-05-16T07:48:44;12.60;64.90
77613;DHT22;66777;52.282;5.960;2023-05-16T07:51:10;12.50;65.00
77613;DHT22;66777;52.282;5.960;2023-05-16T07:53:36;12.30;65.40
77613;DHT22;66777;52.282;5.960;2023-05-16T07:56:02;12.00;65.00
77613;DHT22;66777;52.282;5.960;2023-05-16T07:58:28;11.90;64.20
77613;DHT22;66777;52.282;5.960;2023-05-16T08:00:53;12.00;65.30
77613;DHT22;66777;52.282;5.960;2023-05-16T08:03:19;12.40;65.40
77613;DHT22;66777;52.282;5.960;2023-05-16T08:05:44;13.30;62.10
77613;DHT22;66777;52.282;5.960;2023-05-16T08:08:10;13.50;62.70
77613;DHT22;66777;52.282;5.960;2023-05-16T08:10:36;13.50;61.80
77613;DHT22;66777;52.282;5.960;2023-05-16T08:13:02;13.30;62.40
77613;DHT22;66777;52.282;5.960;2023-05-16T08:15:30;13.30;63.10
77613;DHT22;66777;52.282;5.960;2023-05-16T08:17:57;13.40;60.30
77613;DHT22;66777;52.282;5.960;2023-05-16T08:20:24;13.40;60.10
77613;DHT22;66777;52.282;5.960;2023-05-16T08:22:50;13.50;60.40
77613;DHT22;66777;52.282;5.960;2023-05-16T08:25:17;13.80;60.90
77613;DHT22;66777;52.282;5.960;2023-05-16T08:27:44;14.00;60.00
77613;DHT22;66777;52.282;5.960;2023-05-16T08:30:10;14.10;60.20
77613;DHT22;66777;52.282;5.960;2023-05-16T08:32:36;14.80;58.80
77613;DHT22;66777;52.282;5.960;2023-05-16T08:35:02;14.70;57.50
77613;DHT22;66777;52.282;5.960;2023-05-16T08:37:28;14.00;59.70
77613;DHT22;66777;52.282;5.960;2023-05-16T08:39:54;13.30;62.90
77613;DHT22;66777;52.282;5.960;2023-05-16T08:42:20;13.20;63.50
77613;DHT22;66777;52.282;5.960;2023-05-16T08:44:46;13.50;63.70
77613;DHT22;66777;52.282;5.960;2023-05-16T08:47:20;13.70;62.80
77613;DHT22;66777;52.282;5.960;2023-05-16T08:49:47;14.00;61.10
77613;DHT22;66777;52.282;5.960;2023-05-16T08:52:18;14.10;59.80
77613;DHT22;66777;52.282;5.960;2023-05-16T08:54:46;14.00;56.50
77613;DHT22;66777;52.282;5.960;2023-05-16T08:57:13;14.00;56.20
77613;DHT22;66777;52.282;5.960;2023-05-16T08:59:39;14.20;57.10
77613;DHT22;66777;52.282;5.960;2023-05-16T09:02:06;14.40;54.20
77613;DHT22;66777;52.282;5.960;2023-05-16T09:04:33;14.70;56.00
77613;DHT22;66777;52.282;5.960;2023-05-16T09:07:00;14.70;54.10
77613;DHT22;66777;52.282;5.960;2023-05-16T09:09:25;15.00;55.20
77613;DHT22;66777;52.282;5.960;2023-05-16T09:11:51;15.30;53.60
77613;DHT22;66777;52.282;5.960;2023-05-16T09:14:16;16.10;52.30
77613;DHT22;66777;52.282;5.960;2023-05-16T09:16:44;16.50;50.40
77613;DHT22;66777;52.282;5.960;2023-05-16T09:19:12;16.10;51.40
77613;DHT22;66777;52.282;5.960;2023-05-16T09:21:38;15.20;56.40
77613;DHT22;66777;52.282;5.960;2023-05-16T09:24:08;14.30;62.30
77613;DHT22;66777;52.282;5.960;2023-05-16T09:26:36;13.80;63.90
77613;DHT22;66777;52.282;5.960;2023-05-16T09:29:12;13.50;63.40
77613;DHT22;66777;52.282;5.960;2023-05-16T09:31:39;13.80;66.10
77613;DHT22;66777;52.282;5.960;2023-05-16T09:34:09;14.30;62.80
77613;DHT22;66777;52.282;5.960;2023-05-16T09:36:37;14.60;61.30
77613;DHT22;66777;52.282;5.960;2023-05-16T09:39:05;14.90;62.10
77613;DHT22;66777;52.282;5.960;2023-05-16T09:41:35;15.30;60.80
77613;DHT22;66777;52.282;5.960;2023-05-16T09:44:05;15.60;57.90
77613;DHT22;66777;52.282;5.960;2023-05-16T09:46:33;16.00;56.50
77613;DHT22;66777;52.282;5.960;2023-05-16T09:48:59;16.20;52.70
77613;DHT22;66777;52.282;5.960;2023-05-16T09:51:25;16.50;52.20
77613;DHT22;66777;52.282;5.960;2023-05-16T09:53:51;17.20;51.70
77613;DHT22;66777;52.282;5.960;2023-05-16T09:56:17;18.20;50.40
77613;DHT22;66777;52.282;5.960;2023-05-16T09:58:44;18.40;49.10
77613;DHT22;66777;52.282;5.960;2023-05-16T10:01:11;18.10;50.20
77613;DHT22;66777;52.282;5.960;2023-05-16T10:03:38;18.30;48.20
77613;DHT22;66777;52.282;5.960;2023-05-16T10:06:05;18.40;47.90
77613;DHT22;66777;52.282;5.960;2023-05-16T10:08:33;18.60;47.00
77613;DHT22;66777;52.282;5.960;2023-05-16T10:11:04;19.10;47.20
77613;DHT22;66777;52.282;5.960;2023-05-16T10:13:34;19.20;46.50
77613;DHT22;66777;52.282;5.960;2023-05-16T10:16:05;19.30;46.20
77613;DHT22;66777;52.282;5.960;2023-05-16T10:18:31;18.90;46.60
77613;DHT22;66777;52.282;5.960;2023-05-16T10:21:04;18.70;46.60
77613;DHT22;66777;52.282;5.960;2023-05-16T10:23:32;18.30;47.30
77613;DHT22;66777;52.282;5.960;2023-05-16T10:26:02;17.50;47.90
77613;DHT22;66777;52.282;5.960;2023-05-16T10:28:28;17.50;49.50
77613;DHT22;66777;52.282;5.960;2023-05-16T10:30:54;17.00;49.90
77613;DHT22;66777;52.282;5.960;2023-05-16T10:33:20;16.90;50.90
77613;DHT22;66777;52.282;5.960;2023-05-16T10:35:46;17.80;49.90
77613;DHT22;66777;52.282;5.960;2023-05-16T10:38:15;18.70;47.20
77613;DHT22;66777;52.282;5.960;2023-05-16T10:40:42;17.80;45.60
77613;DHT22;66777;52.282;5.960;2023-05-16T10:43:08;19.10;46.00
77613;DHT22;66777;52.282;5.960;2023-05-16T10:45:40;21.00;43.30
77613;DHT22;66777;52.282;5.960;2023-05-16T10:48:06;21.00;42.60
77613;DHT22;66777;52.282;5.960;2023-05-16T10:50:43;19.50;43.40
77613;DHT22;66777;52.282;5.960;2023-05-16T10:53:19;19.10;44.80
77613;DHT22;66777;52.282;5.960;2023-05-16T11:01:20;21.60;42.10
77613;DHT22;66777;52.282;5.960;2023-05-16T11:06:25;24.00;38.30
77613;DHT22;66777;52.282;5.960;2023-05-16T11:14:21;26.00;36.80
77613;DHT22;66777;52.282;5.960;2023-05-16T11:19:33;23.80;38.30
77613;DHT22;66777;52.282;5.960;2023-05-16T11:22:11;27.20;34.30
77613;DHT22;66777;52.282;5.960;2023-05-16T11:27:23;27.10;33.70
77613;DHT22;66777;52.282;5.960;2023-05-16T11:29:50;23.80;36.10
77613;DHT22;66777;52.282;5.960;2023-05-16T11:32:19;24.00;36.90
77613;DHT22;66777;52.282;5.960;2023-05-16T11:34:46;22.00;37.70
77613;DHT22;66777;52.282;5.960;2023-05-16T11:37:13;22.50;38.00
77613;DHT22;66777;52.282;5.960;2023-05-16T11:39:39;21.60;38.70
77613;DHT22;66777;52.282;5.960;2023-05-16T11:42:05;22.80;38.30
77613;DHT22;66777;52.282;5.960;2023-05-16T11:44:30;22.60;38.60
77613;DHT22;66777;52.282;5.960;2023-05-16T11:46:56;22.80;38.30
77613;DHT22;66777;52.282;5.960;2023-05-16T11:49:22;26.80;34.70
77613;DHT22;66777;52.282;5.960;2023-05-16T11:51:47;25.80;35.90
77613;DHT22;66777;52.282;5.960;2023-05-16T11:54:14;25.80;34.30
77613;DHT22;66777;52.282;5.960;2023-05-16T11:56:40;27.90;33.20
77613;DHT22;66777;52.282;5.960;2023-05-16T11:59:07;30.90;32.00
77613;DHT22;66777;52.282;5.960;2023-05-16T12:01:33;30.50;31.90
77613;DHT22;66777;52.282;5.960;2023-05-16T12:04:00;32.50;30.00
77613;DHT22;66777;52.282;5.960;2023-05-16T12:06:26;28.80;31.60
77613;DHT22;66777;52.282;5.960;2023-05-16T12:08:51;29.30;31.50
77613;DHT22;66777;52.282;5.960;2023-05-16T12:11:17;30.10;31.00
77613;DHT22;66777;52.282;5.960;2023-05-16T12:13:43;32.30;30.20
77613;DHT22;66777;52.282;5.960;2023-05-16T12:16:11;27.80;32.10
77613;DHT22;66777;52.282;5.960;2023-05-16T12:18:37;25.30;34.50
77613;DHT22;66777;52.282;5.960;2023-05-16T12:21:04;23.40;36.30
77613;DHT22;66777;52.282;5.960;2023-05-16T12:23:32;28.30;33.80
77613;DHT22;66777;52.282;5.960;2023-05-16T12:25:58;32.80;29.50
77613;DHT22;66777;52.282;5.960;2023-05-16T12:28:30;31.50;30.20
77613;DHT22;66777;52.282;5.960;2023-05-16T12:30:57;30.20;31.30
77613;DHT22;66777;52.282;5.960;2023-05-16T12:33:23;28.70;32.10
77613;DHT22;66777;52.282;5.960;2023-05-16T12:35:49;30.10;31.20
77613;DHT22;66777;52.282;5.960;2023-05-16T12:38:18;29.90;30.80
77613;DHT22;66777;52.282;5.960;2023-05-16T12:40:45;29.50;31.30
77613;DHT22;66777;52.282;5.960;2023-05-16T12:43:19;27.10;33.10
77613;DHT22;66777;52.282;5.960;2023-05-16T12:45:52;30.70;31.10
77613;DHT22;66777;52.282;5.960;2023-05-16T12:48:19;32.20;29.60
77613;DHT22;66777;52.282;5.960;2023-05-16T12:50:45;29.80;31.00
77613;DHT22;66777;52.282;5.960;2023-05-16T12:53:15;25.80;33.90
77613;DHT22;66777;52.282;5.960;2023-05-16T12:55:41;22.80;37.30
77613;DHT22;66777;52.282;5.960;2023-05-16T12:58:08;21.00;40.20
77613;DHT22;66777;52.282;5.960;2023-05-16T13:00:35;19.30;42.80
77613;DHT22;66777;52.282;5.960;2023-05-16T13:03:03;18.30;44.40
77613;DHT22;66777;52.282;5.960;2023-05-16T13:05:29;17.80;46.40
77613;DHT22;66777;52.282;5.960;2023-05-16T13:07:54;17.40;46.50
77613;DHT22;66777;52.282;5.960;2023-05-16T13:10:20;20.20;44.00
77613;DHT22;66777;52.282;5.960;2023-05-16T13:12:45;27.00;36.40
77613;DHT22;66777;52.282;5.960;2023-05-16T13:15:12;30.50;33.00
77613;DHT22;66777;52.282;5.960;2023-05-16T13:17:38;27.30;34.60
77613;DHT22;66777;52.282;5.960;2023-05-16T13:20:05;23.50;38.30
77613;DHT22;66777;52.282;5.960;2023-05-16T13:22:41;21.30;41.80
77613;DHT22;66777;52.282;5.960;2023-05-16T13:25:08;19.70;43.80
77613;DHT22;66777;52.282;5.960;2023-05-16T13:27:35;19.30;44.80
77613;DHT22;66777;52.282;5.960;2023-05-16T13:30:01;18.80;46.20
77613;DHT22;66777;52.282;5.960;2023-05-16T13:32:28;18.50;45.80
77613;DHT22;66777;52.282;5.960;2023-05-16T13:34:54;18.30;46.10
77613;DHT22;66777;52.282;5.960;2023-05-16T13:37:19;17.90;46.30
77613;DHT22;66777;52.282;5.960;2023-05-16T13:39:45;17.80;46.50
77613;DHT22;66777;52.282;5.960;2023-05-16T13:42:10;18.30;45.90
77613;DHT22;66777;52.282;5.960;2023-05-16T13:44:36;17.80;45.40
77613;DHT22;66777;52.282;5.960;2023-05-16T13:47:02;17.40;46.40
77613;DHT22;66777;52.282;5.960;2023-05-16T13:49:27;17.50;45.90
77613;DHT22;66777;52.282;5.960;2023-05-16T13:51:53;17.70;45.70
77613;DHT22;66777;52.282;5.960;2023-05-16T13:54:19;17.80;45.50
77613;DHT22;66777;52.282;5.960;2023-05-16T13:56:47;17.50;45.70
77613;DHT22;66777;52.282;5.960;2023-05-16T13:59:13;17.20;45.80
77613;DHT22;66777;52.282;5.960;2023-05-16T14:01:38;17.20;46.20
77613;DHT22;66777;52.282;5.960;2023-05-16T14:04:04;17.20;46.40
77613;DHT22;66777;52.282;5.960;2023-05-16T14:06:30;17.20;45.90
77613;DHT22;66777;52.282;5.960;2023-05-16T14:08:56;18.00;45.50
77613;DHT22;66777;52.282;5.960;2023-05-16T14:11:21;17.80;45.50
77613;DHT22;66777;52.282;5.960;2023-05-16T14:13:54;17.50;46.10
77613;DHT22;66777;52.282;5.960;2023-05-16T14:16:20;17.60;46.10
77613;DHT22;66777;52.282;5.960;2023-05-16T14:18:46;17.70;46.20
77613;DHT22;66777;52.282;5.960;2023-05-16T14:21:12;17.60;46.40
77613;DHT22;66777;52.282;5.960;2023-05-16T14:23:37;19.10;45.20
77613;DHT22;66777;52.282;5.960;2023-05-16T14:26:04;22.60;39.50
77613;DHT22;66777;52.282;5.960;2023-05-16T14:28:31;21.50;41.00
77613;DHT22;66777;52.282;5.960;2023-05-16T14:30:58;20.30;42.60
77613;DHT22;66777;52.282;5.960;2023-05-16T14:33:24;20.50;41.90
77613;DHT22;66777;52.282;5.960;2023-05-16T14:35:49;19.50;43.20
77613;DHT22;66777;52.282;5.960;2023-05-16T14:38:16;18.20;44.60
77613;DHT22;66777;52.282;5.960;2023-05-16T14:40:42;17.50;46.20
77613;DHT22;66777;52.282;5.960;2023-05-16T14:43:08;17.40;46.70
77613;DHT22;66777;52.282;5.960;2023-05-16T14:45:33;17.40;47.00
77613;DHT22;66777;52.282;5.960;2023-05-16T14:47:59;20.30;43.40
77613;DHT22;66777;52.282;5.960;2023-05-16T14:50:25;27.40;36.00
77613;DHT22;66777;52.282;5.960;2023-05-16T14:52:51;28.00;34.90
77613;DHT22;66777;52.282;5.960;2023-05-16T14:55:17;29.50;33.60
77613;DHT22;66777;52.282;5.960;2023-05-16T14:57:43;29.70;33.50
77613;DHT22;66777;52.282;5.960;2023-05-16T15:00:10;28.60;33.70
77613;DHT22;66777;52.282;5.960;2023-05-16T15:02:36;26.80;35.00
77613;DHT22;66777;52.282;5.960;2023-05-16T15:05:02;25.00;36.40
77613;DHT22;66777;52.282;5.960;2023-05-16T15:07:28;24.00;37.20
77613;DHT22;66777;52.282;5.960;2023-05-16T15:09:53;22.70;38.50
77613;DHT22;66777;52.282;5.960;2023-05-16T15:12:19;22.50;39.50
77613;DHT22;66777;52.282;5.960;2023-05-16T15:14:44;21.20;40.90
77613;DHT22;66777;52.282;5.960;2023-05-16T15:17:10;19.50;42.60
77613;DHT22;66777;52.282;5.960;2023-05-16T15:19:35;18.40;45.00
77613;DHT22;66777;52.282;5.960;2023-05-16T15:22:01;17.80;45.70
77613;DHT22;66777;52.282;5.960;2023-05-16T15:24:27;18.00;45.40
77613;DHT22;66777;52.282;5.960;2023-05-16T15:26:52;18.00;45.40
77613;DHT22;66777;52.282;5.960;2023-05-16T15:29:19;17.70;46.00
77613;DHT22;66777;52.282;5.960;2023-05-16T15:31:46;17.40;46.70
77613;DHT22;66777;52.282;5.960;2023-05-16T15:34:11;17.10;46.90
77613;DHT22;66777;52.282;5.960;2023-05-16T15:36:37;17.10;47.10
77613;DHT22;66777;52.282;5.960;2023-05-16T15:39:02;17.20;47.20
77613;DHT22;66777;52.282;5.960;2023-05-16T15:41:28;17.20;47.00
77613;DHT22;66777;52.282;5.960;2023-05-16T15:43:54;17.00;47.60
77613;DHT22;66777;52.282;5.960;2023-05-16T15:46:19;16.60;48.10
77613;DHT22;66777;52.282;5.960;2023-05-16T15:48:45;16.40;48.80
77613;DHT22;66777;52.282;5.960;2023-05-16T15:51:11;16.20;49.10
77613;DHT22;66777;52.282;5.960;2023-05-16T15:53:40;16.20;49.10
77613;DHT22;66777;52.282;5.960;2023-05-16T15:56:07;16.30;49.40
77613;DHT22;66777;52.282;5.960;2023-05-16T15:58:34;16.30;49.00
77613;DHT22;66777;52.282;5.960;2023-05-16T16:01:00;16.10;48.90